ROMMA est une association bénévole à but non lucratif. Votre soutien est indispensable : ADHERER à ROMMA ou FAIRE un DON

Crempigny-Bonneguête - (74, Haute-Savoie)

Albanais-Montagne des Princes (500 m)   Longitude: 05° 54' 5" E   Latitude: 45° 57' 0" N Station partenaire n°10
 

Détail journalier du     <<     >>

Température Precipitation Humidité Pression Vent Dir Rafale Dir. rafale Ensol. 20 cm au dessus du sol
Heure (°C) (mm) (%) (hPa) (km/h) (km/h) (min) (°C)
01:00 14.805610253ONO6ONO013.3
02:00 13.106410262O6O010.6
03:00 12.606510252SO6ONO010.0
04:00 11.506910252NO5NO09.4
05:00 11.306910253NO6NO09.4
06:00 10.207410252ONO5NO08.3
07:00 9.907410251ONO5ONO07.8
08:00 9.807410261ONO3ONO07.8
09:00 10.4077102603ONO510.0
10:00 13.207210253SSO8SSO5515.6
11:00 15.706310243SSO8SSO6018.3
12:00 18.704910244ENE13NE6020.6
13:00 20.004510236N16ENE6022.2
14:00 21.304210236NE16NE6023.3
15:00 21.804110226ENE21NO6023.9
16:00 22.204010217NNE21NE6023.9
17:00 22.603810218N18NO6023.9
18:00 22.1038102011NNE26NNE6022.8
19:00 21.6035102012NNE27ENE6021.7
20:00 19.104010208NNE23N3517.8
21:00 18.004410217NNO19NE516.7
22:00 17.104510215N16NNE015.0
23:00 16.804410214NO8E015.0
minuit 15.904510216NO10NO014.4

Graphique du 20-04-2019

 

Serveur OMMA